Time;durP1;ratioP1;P1;durP2;ratioP2;P2;SDS_P1;SDS_P2;PMS_P1;PMS_P2;Temp;Humidity;BMP_temperature;BMP_pressure;BME280_temperature;BME280_humidity;BME280_pressure;Samples;Min_cycle;Max_cycle;Signal;HPM_P1;HPM_P2
2022/03/01 00:00:23;;;;;;;;;;;;;;;-1.16;77.82;101952.13;5560312;32;35502;-85
2022/03/01 00:03:26;;;;;;;;;;;;;;;-1.26;77.50;101949.69;5561207;32;34360;-85
2022/03/01 00:06:29;;;;;;;;;;;;;;;-1.27;77.90;101955.75;5560712;32;34780;-85
2022/03/01 00:09:32;;;;;;;;;;;;;;;-1.32;77.77;101955.00;5560116;32;34567;-85
2022/03/01 00:12:35;;;;;;;;;;;;;;;-1.31;77.82;101956.72;5559567;32;34560;-85
2022/03/01 00:15:37;;;;;;;;;;;;;;;-1.29;77.97;101952.31;5559944;32;35006;-85
2022/03/01 00:18:44;;;;;;;;;;;;;;;-1.30;77.72;101952.37;5559959;32;34269;-85
2022/03/01 00:21:47;;;;;;;;;;;;;;;-1.26;78.16;101954.88;5560452;32;34629;-85
2022/03/01 00:24:49;;;;;;;;;;;;;;;-1.27;77.97;101947.97;5562128;32;34895;-85
2022/03/01 00:27:52;;;;;;;;;;;;;;;-1.25;77.78;101946.22;5561914;32;35458;-85
2022/03/01 00:31:03;;;;;;;;;;;;;;;-1.29;78.37;101941.94;5561475;32;34792;-86
2022/03/01 00:34:09;;;;;;;;;;;;;;;-1.24;77.48;101944.50;5559386;32;34520;-85
2022/03/01 00:37:12;;;;;;;;;;;;;;;-1.21;77.39;101946.19;5558591;32;35286;-85
2022/03/01 00:40:15;;;;;;;;;;;;;;;-1.26;79.48;101946.25;5558981;32;34689;-85
2022/03/01 00:43:18;;;;;;;;;;;;;;;-1.10;77.55;101946.84;5558778;32;34840;-85
2022/03/01 00:46:22;;;;;;;;;;;;;;;-1.09;78.01;101943.38;5544782;32;34700;-85
2022/03/01 00:49:25;;;;;;;;;;;;;;;-1.09;78.65;101943.38;5559121;32;35839;-86
2022/03/01 00:52:29;;;;;;;;;;;;;;;-1.28;79.26;101948.84;5558368;32;34690;-85
2022/03/01 00:55:31;;;;;;;;;;;;;;;-1.40;80.27;101949.03;5558667;32;34716;-86
2022/03/01 00:58:34;;;;;;;;;;;;;;;-1.47;81.36;101944.84;5558011;32;35315;-85
2022/03/01 01:01:38;;;;;;;;;;;;;;;-1.47;81.19;101937.03;5558922;32;34588;-85
2022/03/01 01:04:43;;;;;;;;;;;;;;;-1.49;82.05;101933.59;5559230;32;35224;-85
2022/03/01 01:07:47;;;;;;;;;;;;;;;-1.49;81.16;101936.22;5559081;32;34747;-85
2022/03/01 01:10:50;;;;;;;;;;;;;;;-1.64;82.26;101943.38;5559023;32;35112;-85
2022/03/01 01:13:53;;;;;;;;;;;;;;;-1.77;82.90;101929.69;5558920;32;34749;-85
2022/03/01 01:16:56;;;;;;;;;;;;;;;-1.75;81.85;101940.06;5559011;32;34776;-85
2022/03/01 01:19:59;;;;;;;;;;;;;;;-1.56;81.31;101938.91;5558123;32;34527;-85
2022/03/01 01:23:02;;;;;;;;;;;;;;;-1.66;80.95;101945.13;5558798;32;34513;-85
2022/03/01 01:26:05;;;;;;;;;;;;;;;-1.63;80.03;101939.84;5559033;32;35396;-85
2022/03/01 01:29:09;;;;;;;;;;;;;;;-1.77;80.17;101940.06;5557985;32;34429;-85
2022/03/01 01:32:12;;;;;;;;;;;;;;;-1.73;80.05;101941.75;5558815;32;34898;-85
2022/03/01 01:35:15;;;;;;;;;;;;;;;-1.70;80.01;101940.84;5559074;32;35014;-85
2022/03/01 01:38:17;;;;;;;;;;;;;;;-1.53;78.61;101950.97;5560237;32;34758;-85
2022/03/01 01:41:23;;;;;;;;;;;;;;;-1.64;79.00;101945.97;5561388;32;35025;-85
2022/03/01 01:44:43;;;;;;;;;;;;;;;-1.82;79.70;101938.41;5561471;32;35095;-85
2022/03/01 01:48:07;;;;;;;;;;;;;;;-1.86;79.47;101935.84;5560833;32;34650;-85
2022/03/01 01:51:11;;;;;;;;;;;;;;;-1.92;80.37;101941.13;5560197;32;34820;-85
2022/03/01 01:54:14;;;;;;;;;;;;;;;-1.83;79.61;101939.28;5559875;32;35491;-85
2022/03/01 01:57:21;;;;;;;;;;;;;;;-1.63;77.64;101921.69;5559106;32;35315;-85
2022/03/01 02:00:25;;;;;;;;;;;;;;;-1.69;78.41;101927.00;5544117;32;34488;-85
2022/03/01 02:03:28;;;;;;;;;;;;;;;-1.77;78.49;101934.03;5559100;32;35173;-85
2022/03/01 02:06:30;;;;;;;;;;;;;;;-1.82;79.78;101928.03;5558300;32;34778;-83
2022/03/01 02:09:34;;;;;;;;;;;;;;;-1.92;79.21;101925.56;5560010;32;36994;-83
2022/03/01 02:12:36;;;;;;;;;;;;;;;-1.96;80.01;101923.03;5558948;32;35107;-83
2022/03/01 02:15:39;;;;;;;;;;;;;;;-1.71;78.51;101924.44;5558189;32;35139;-83
2022/03/01 02:18:42;;;;;;;;;;;;;;;-1.76;77.24;101921.03;5559106;32;35161;-83
2022/03/01 02:21:45;;;;;;;;;;;;;;;-1.68;77.40;101909.66;5561705;32;34408;-82
2022/03/01 02:24:48;;;;;;;;;;;;;;;-1.80;78.15;101918.50;5561036;32;34944;-83
2022/03/01 02:27:51;;;;;;;;;;;;;;;-1.73;76.96;101925.31;5560163;32;34650;-82
2022/03/01 02:30:55;;;;;;;;;;;;;;;-1.79;77.81;101912.44;5558070;32;35216;-83
2022/03/01 02:33:58;;;;;;;;;;;;;;;-1.76;76.81;101922.78;5558300;32;34868;-83
2022/03/01 02:37:01;;;;;;;;;;;;;;;-1.59;76.16;101915.59;5559712;32;34742;-83
2022/03/01 02:40:07;;;;;;;;;;;;;;;-1.56;75.86;101918.16;5558546;32;34372;-82
2022/03/01 02:43:10;;;;;;;;;;;;;;;-1.54;75.52;101909.47;5544744;32;34684;-82
2022/03/01 02:46:13;;;;;;;;;;;;;;;-1.46;75.40;101913.66;5558990;32;34691;-82
2022/03/01 02:49:18;;;;;;;;;;;;;;;-1.43;75.33;101916.19;5557499;32;35464;-82
2022/03/01 02:52:24;;;;;;;;;;;;;;;-1.65;76.94;101913.09;5558626;32;34509;-85
2022/03/01 02:55:26;;;;;;;;;;;;;;;-1.68;77.38;101909.66;5557013;32;34505;-85
2022/03/01 02:58:29;;;;;;;;;;;;;;;-1.79;77.54;101902.06;5557345;32;35225;-85
2022/03/01 03:01:32;;;;;;;;;;;;;;;-1.82;78.33;101899.50;5559269;32;35666;-85
2022/03/01 03:04:40;;;;;;;;;;;;;;;-1.86;78.20;101907.31;5558178;32;35104;-85
2022/03/01 03:07:43;;;;;;;;;;;;;;;-1.92;79.54;101894.44;5557633;32;34120;-85
2022/03/01 03:10:46;;;;;;;;;;;;;;;-1.94;78.13;101901.37;5558789;32;34638;-85
2022/03/01 03:13:48;;;;;;;;;;;;;;;-2.12;80.19;101906.84;5557000;32;34585;-85
2022/03/01 03:16:51;;;;;;;;;;;;;;;-2.07;78.55;101911.09;5559022;32;35362;-85
2022/03/01 03:19:54;;;;;;;;;;;;;;;-1.95;78.18;101902.25;5559187;32;34713;-85
2022/03/01 03:22:56;;;;;;;;;;;;;;;-1.81;76.98;101901.22;5557812;32;35345;-85
2022/03/01 03:25:59;;;;;;;;;;;;;;;-1.92;77.96;101904.81;5545857;32;34581;-85
2022/03/01 03:29:08;;;;;;;;;;;;;;;-2.07;78.79;101905.91;5559310;32;36934;-85
2022/03/01 03:32:10;;;;;;;;;;;;;;;-2.13;80.54;101905.97;5560109;32;34480;-85
2022/03/01 03:35:13;;;;;;;;;;;;;;;-1.93;79.26;101910.88;5559819;32;34446;-85
2022/03/01 03:38:16;;;;;;;;;;;;;;;-2.11;80.37;101898.19;5559529;32;34261;-85
2022/03/01 03:41:21;;;;;;;;;;;;;;;-2.28;80.71;101904.41;5559375;32;35491;-85
2022/03/01 03:44:26;;;;;;;;;;;;;;;-2.30;80.55;101911.34;5559346;32;34822;-83
2022/03/01 03:47:31;;;;;;;;;;;;;;;-2.35;79.94;101905.38;5559269;32;34938;-83
2022/03/01 03:50:34;;;;;;;;;;;;;;;-2.29;80.64;101902.69;5559669;32;36484;-83
2022/03/01 03:53:42;;;;;;;;;;;;;;;-2.33;80.60;101903.63;5559309;32;34918;-83
2022/03/01 03:56:44;;;;;;;;;;;;;;;-2.34;80.67;101901.91;5558809;32;34571;-83
2022/03/01 03:59:47;;;;;;;;;;;;;;;-2.30;80.49;101906.16;5559187;32;34447;-83
2022/03/01 04:02:53;;;;;;;;;;;;;;;-2.07;79.74;101900.72;5560372;32;34788;-83
2022/03/01 04:05:57;;;;;;;;;;;;;;;-2.18;79.70;101906.03;5559539;32;34287;-83
2022/03/01 04:09:02;;;;;;;;;;;;;;;-2.29;79.92;101900.12;5560093;32;37077;-84
2022/03/01 04:12:07;;;;;;;;;;;;;;;-2.12;78.57;101896.47;5559180;32;34803;-83
2022/03/01 04:15:10;;;;;;;;;;;;;;;-2.20;80.48;101899.16;5559787;32;34607;-83
2022/03/01 04:18:13;;;;;;;;;;;;;;;-1.95;77.46;101904.00;5560493;32;34602;-83
2022/03/01 04:21:16;;;;;;;;;;;;;;;-2.04;79.57;101899.78;5558797;32;34614;-83
2022/03/01 04:24:19;;;;;;;;;;;;;;;-2.27;80.37;101898.37;5560536;32;34673;-83
2022/03/01 04:27:21;;;;;;;;;;;;;;;-2.36;81.06;101895.88;5558855;32;34928;-83
2022/03/01 04:30:24;;;;;;;;;;;;;;;-2.22;79.86;101899.19;5558434;32;34949;-83
2022/03/01 04:33:32;;;;;;;;;;;;;;;-2.31;79.78;101896.72;5557461;32;34791;-83
2022/03/01 04:36:35;;;;;;;;;;;;;;;-2.36;82.53;101906.25;5559854;32;34489;-83
2022/03/01 04:39:37;;;;;;;;;;;;;;;-2.39;81.29;101893.31;5559635;32;34536;-86
2022/03/01 04:42:43;;;;;;;;;;;;;;;-2.44;80.69;101895.13;5559186;32;34738;-85
2022/03/01 04:45:45;;;;;;;;;;;;;;;-2.50;80.41;101894.31;5559051;32;34935;-84
2022/03/01 04:48:52;;;;;;;;;;;;;;;-2.49;80.34;101906.41;5558827;32;35785;-83
2022/03/01 04:51:57;;;;;;;;;;;;;;;-2.37;80.30;101904.53;5558791;32;34874;-85
2022/03/01 04:55:00;;;;;;;;;;;;;;;-2.44;80.56;101900.31;5560747;32;34866;-85
2022/03/01 04:58:03;;;;;;;;;;;;;;;-2.56;82.10;101902.19;5561050;32;34965;-84
2022/03/01 05:01:06;;;;;;;;;;;;;;;-2.62;81.77;101902.22;5558333;32;34169;-83
2022/03/01 05:04:09;;;;;;;;;;;;;;;-2.66;81.41;101901.41;5558872;32;35027;-83
2022/03/01 05:07:12;;;;;;;;;;;;;;;-2.51;80.77;101882.22;5559270;32;35022;-84
2022/03/01 05:10:19;;;;;;;;;;;;;;;-2.59;81.74;101891.84;5558741;32;35032;-85
2022/03/01 05:13:22;;;;;;;;;;;;;;;-2.74;82.14;101889.41;5559360;32;35114;-83
2022/03/01 05:16:24;;;;;;;;;;;;;;;-2.68;81.91;101881.59;5560275;32;35480;-84
2022/03/01 05:19:29;;;;;;;;;;;;;;;-2.60;80.98;101887.53;5545201;32;34424;-83
2022/03/01 05:22:32;;;;;;;;;;;;;;;-2.39;79.59;101889.03;5559358;32;34808;-83
2022/03/01 05:25:38;;;;;;;;;;;;;;;-2.43;80.97;101891.66;5559150;32;34562;-83
2022/03/01 05:28:43;;;;;;;;;;;;;;;-2.58;80.50;101885.78;5559432;32;34807;-84
2022/03/01 05:31:46;;;;;;;;;;;;;;;-2.44;80.33;101895.13;5560182;32;34199;-86
2022/03/01 05:34:48;;;;;;;;;;;;;;;-2.46;80.83;101889.09;5559657;32;35322;-85
2022/03/01 05:37:55;;;;;;;;;;;;;;;-2.61;81.07;101892.75;5561503;32;35044;-86
2022/03/01 05:40:57;;;;;;;;;;;;;;;-2.65;81.34;101886.75;5560771;32;34712;-85
2022/03/01 05:44:00;;;;;;;;;;;;;;;-2.59;81.57;101889.25;5560878;32;34568;-85
2022/03/01 05:47:03;;;;;;;;;;;;;;;-2.57;81.19;101890.09;5560575;32;34904;-84
2022/03/01 05:50:10;;;;;;;;;;;;;;;-2.62;81.87;101889.28;5562647;32;34341;-84
2022/03/01 05:53:18;;;;;;;;;;;;;;;-2.60;82.12;101884.94;5552780;32;35451;-85
2022/03/01 05:56:21;;;;;;;;;;;;;;;-2.72;82.35;101891.13;5549339;32;34798;-84
2022/03/01 05:59:27;;;;;;;;;;;;;;;-2.63;82.23;101900.50;5554287;32;35568;-86
2022/03/01 06:02:34;;;;;;;;;;;;;;;-2.71;83.58;101886.78;5552213;32;34701;-87
2022/03/01 06:05:41;;;;;;;;;;;;;;;-2.77;83.55;101900.66;5559010;32;34683;-84
2022/03/01 06:08:43;;;;;;;;;;;;;;;-2.71;83.80;101891.97;5555961;32;36012;-86
2022/03/01 06:11:46;;;;;;;;;;;;;;;-2.73;83.21;101894.59;5560315;32;34703;-85
2022/03/01 06:14:49;;;;;;;;;;;;;;;-2.56;82.04;101894.41;5560572;32;34804;-86
2022/03/01 06:17:54;;;;;;;;;;;;;;;-2.33;82.12;101901.88;5559850;32;34365;-85
2022/03/01 06:20:57;;;;;;;;;;;;;;;-2.37;81.74;101901.94;5561085;32;35311;-86
2022/03/01 06:24:03;;;;;;;;;;;;;;;-2.30;81.50;101903.56;5559615;32;34723;-84
2022/03/01 06:27:05;;;;;;;;;;;;;;;-2.21;80.75;101900.91;5560406;32;35495;-86
2022/03/01 06:30:09;;;;;;;;;;;;;;;-2.07;79.94;101902.44;5560640;32;34996;-84
2022/03/01 06:33:12;;;;;;;;;;;;;;;-2.07;79.64;101889.47;5561038;32;34728;-85
2022/03/01 06:36:14;;;;;;;;;;;;;;;-1.83;78.43;101890.87;5556644;32;35310;-86
2022/03/01 06:39:17;;;;;;;;;;;;;;;-1.46;75.60;101897.22;5540807;32;34778;-86
2022/03/01 06:42:20;;;;;;;;;;;;;;;-1.27;73.82;101895.19;5558900;32;35212;-87
2022/03/01 06:45:22;;;;;;;;;;;;;;;-1.19;73.20;101898.50;5560034;32;35277;-86
2022/03/01 06:48:25;;;;;;;;;;;;;;;-1.15;72.47;101901.91;5559450;32;35012;-84
2022/03/01 06:51:28;;;;;;;;;;;;;;;-0.95;70.54;101899.81;5560725;32;34678;-84
2022/03/01 06:54:33;;;;;;;;;;;;;;;-0.69;69.10;101890.69;5560298;32;35527;-85
2022/03/01 06:57:42;;;;;;;;;;;;;;;-0.75;69.61;101901.19;5557347;32;35021;-85
2022/03/01 07:00:54;;;;;;;;;;;;;;;-0.67;69.93;101894.09;5543090;32;34682;-86
2022/03/01 07:03:59;;;;;;;;;;;;;;;-0.58;69.04;101892.22;5540636;32;34938;-86
2022/03/01 07:07:11;;;;;;;;;;;;;;;-0.62;69.27;101891.41;5539295;32;34551;-84
2022/03/01 07:10:16;;;;;;;;;;;;;;;-0.42;68.51;101888.44;5539133;32;34722;-85
2022/03/01 07:13:19;;;;;;;;;;;;;;;-0.21;67.44;101881.91;5539938;32;36512;-86
2022/03/01 07:16:23;;;;;;;;;;;;;;;-0.27;67.79;101881.16;5540626;32;34436;-85
2022/03/01 07:19:26;;;;;;;;;;;;;;;-0.13;66.04;101884.34;5540631;32;35021;-84
2022/03/01 07:22:29;;;;;;;;;;;;;;;-0.01;65.73;101884.06;5513549;32;881458;-84
2022/03/01 07:25:33;;;;;;;;;;;;;;;0.23;65.73;101881.81;5540102;32;34590;-87
2022/03/01 07:28:37;;;;;;;;;;;;;;;0.16;65.78;101877.66;5544296;32;34949;-85
2022/03/01 07:31:40;;;;;;;;;;;;;;;0.42;64.44;101876.16;5543664;32;34329;-84
2022/03/01 07:34:43;;;;;;;;;;;;;;;0.50;63.21;101879.44;5548461;32;35575;-84
2022/03/01 07:37:46;;;;;;;;;;;;;;;0.67;62.27;101880.75;5547024;32;35736;-84
2022/03/01 07:40:51;;;;;;;;;;;;;;;0.83;60.67;101870.81;5561653;32;35812;-84
2022/03/01 07:43:55;;;;;;;;;;;;;;;0.80;60.67;101882.16;5561560;32;35782;-84
2022/03/01 07:46:58;;;;;;;;;;;;;;;0.98;60.24;101869.53;5561371;32;34670;-84
2022/03/01 07:50:04;;;;;;;;;;;;;;;1.09;59.61;101875.31;5561169;32;35798;-85
2022/03/01 07:53:07;;;;;;;;;;;;;;;1.14;60.13;101881.28;5559501;32;34858;-85
2022/03/01 07:56:10;;;;;;;;;;;;;;;1.18;58.44;101869.84;5558806;32;35264;-85
2022/03/01 07:59:13;;;;;;;;;;;;;;;1.30;59.43;101868.69;5559260;32;35398;-84
2022/03/01 08:02:16;;;;;;;;;;;;;;;1.42;57.31;101874.44;5559448;32;34670;-83
2022/03/01 08:05:22;;;;;;;;;;;;;;;1.48;57.07;101885.56;5559738;32;35304;-84
2022/03/01 08:08:31;;;;;;;;;;;;;;;1.48;57.26;101875.13;5563380;32;35412;-84
2022/03/01 08:11:34;;;;;;;;;;;;;;;1.71;55.85;101884.03;5551247;32;34777;-85
2022/03/01 08:14:41;;;;;;;;;;;;;;;1.76;56.09;101878.69;5562038;32;35193;-84
2022/03/01 08:17:51;;;;;;;;;;;;;;;1.83;55.63;101874.97;5562663;32;34693;-84
2022/03/01 08:20:54;;;;;;;;;;;;;;;1.85;55.49;101875.81;5562630;32;35520;-85
2022/03/01 08:23:57;;;;;;;;;;;;;;;1.97;54.27;101878.03;5562512;32;34846;-85
2022/03/01 08:26:59;;;;;;;;;;;;;;;2.09;54.05;101876.78;5561946;32;34686;-84
2022/03/01 08:30:03;;;;;;;;;;;;;;;2.22;51.96;101863.34;5563976;32;34707;-84
2022/03/01 08:33:07;;;;;;;;;;;;;;;2.26;52.32;101873.66;5562186;32;34973;-84
2022/03/01 08:36:14;;;;;;;;;;;;;;;2.40;50.79;101868.00;5561848;32;34976;-85
2022/03/01 08:39:16;;;;;;;;;;;;;;;2.45;51.21;101878.31;5562345;32;35799;-85
2022/03/01 08:42:19;;;;;;;;;;;;;;;2.54;50.16;101866.69;5561852;32;34876;-85
2022/03/01 08:45:22;;;;;;;;;;;;;;;2.66;50.68;101866.28;5562620;32;35172;-84
2022/03/01 08:48:25;;;;;;;;;;;;;;;2.86;49.60;101863.00;5560891;32;35791;-85
2022/03/01 08:51:30;;;;;;;;;;;;;;;3.00;49.72;101846.81;5560104;32;34886;-85
2022/03/01 08:54:33;;;;;;;;;;;;;;;3.08;48.33;101857.88;5561610;32;34718;-85
2022/03/01 08:57:39;;;;;;;;;;;;;;;3.25;47.28;101861.63;5560420;32;34709;-85
2022/03/01 09:00:43;;;;;;;;;;;;;;;3.17;47.93;101856.66;5561304;32;34810;-84
2022/03/01 09:03:45;;;;;;;;;;;;;;;3.38;46.77;101847.19;5563050;32;35059;-84
2022/03/01 09:06:48;;;;;;;;;;;;;;;3.44;46.17;101853.09;5561211;32;35038;-85
2022/03/01 09:09:54;;;;;;;;;;;;;;;3.36;45.48;101845.56;5560234;32;35840;-85
2022/03/01 09:13:06;;;;;;;;;;;;;;;3.39;47.04;101846.28;5562540;32;34901;-85
2022/03/01 09:16:11;;;;;;;;;;;;;;;3.49;45.58;101835.47;5561243;32;35326;-86
2022/03/01 09:19:16;;;;;;;;;;;;;;;3.58;44.17;101839.53;5559750;32;35381;-85
2022/03/01 09:22:19;;;;;;;;;;;;;;;3.66;44.09;101843.53;5560752;32;34617;-85
2022/03/01 09:25:22;;;;;;;;;;;;;;;3.83;43.66;101834.19;5560000;32;34848;-85
2022/03/01 09:28:25;;;;;;;;;;;;;;;3.90;42.69;101830.41;5560386;32;34867;-85
2022/03/01 09:31:28;;;;;;;;;;;;;;;3.82;41.94;101832.47;5561958;32;34770;-87
2022/03/01 09:34:31;;;;;;;;;;;;;;;3.70;41.25;101818.97;5562864;32;35100;-85
2022/03/01 09:37:33;;;;;;;;;;;;;;;3.72;41.48;101811.03;5561368;32;34720;-85
2022/03/01 09:40:36;;;;;;;;;;;;;;;3.92;41.88;101812.87;5544217;32;33643;-84
2022/03/01 09:43:41;;;;;;;;;;;;;;;3.83;41.27;101801.00;5543096;32;35809;-84
2022/03/01 09:46:52;;;;;;;;;;;;;;;4.04;42.31;101803.69;5543960;32;34897;-84
2022/03/01 09:49:59;;;;;;;;;;;;;;;4.22;42.06;101790.75;5557967;32;35648;-85
2022/03/01 09:53:02;;;;;;;;;;;;;;;4.36;42.45;101795.41;5559884;32;34503;-85
2022/03/01 09:56:07;;;;;;;;;;;;;;;4.41;41.39;101790.84;5560350;32;34721;-85
2022/03/01 09:59:15;;;;;;;;;;;;;;;4.48;41.53;101789.66;5559939;32;34921;-85
2022/03/01 10:02:17;;;;;;;;;;;;;;;4.51;39.92;101789.53;5563409;32;34529;-85
2022/03/01 10:05:31;;;;;;;;;;;;;;;4.63;39.99;101790.75;5560535;32;34962;-85
2022/03/01 10:08:34;;;;;;;;;;;;;;;4.44;40.92;101786.31;5560541;32;34208;-84
2022/03/01 10:11:39;;;;;;;;;;;;;;;4.65;40.05;101786.31;5562387;32;35861;-84
2022/03/01 10:14:45;;;;;;;;;;;;;;;4.52;39.06;101772.87;5561194;32;34384;-84
2022/03/01 10:17:50;;;;;;;;;;;;;;;4.44;39.86;101773.22;5561016;32;35810;-84
2022/03/01 10:21:01;;;;;;;;;;;;;;;4.45;38.05;101759.19;5561766;32;34572;-84
2022/03/01 10:24:05;;;;;;;;;;;;;;;4.36;38.03;101748.25;5565052;32;35829;-83
2022/03/01 10:27:07;;;;;;;;;;;;;;;4.28;37.24;101752.03;5562146;32;35023;-84
2022/03/01 10:30:26;;;;;;;;;;;;;;;4.35;38.43;101754.41;5562928;32;35392;-87
2022/03/01 10:33:29;;;;;;;;;;;;;;;4.44;38.50;101740.94;5560845;32;34876;-85
2022/03/01 10:36:34;;;;;;;;;;;;;;;4.70;37.37;101738.91;5561484;32;34626;-85
2022/03/01 10:39:36;;;;;;;;;;;;;;;4.69;38.11;101730.22;5563256;32;34952;-85
2022/03/01 10:42:39;;;;;;;;;;;;;;;4.78;36.38;101728.97;5560502;32;35296;-86
2022/03/01 10:45:44;;;;;;;;;;;;;;;4.97;35.87;101715.00;5559815;32;34574;-86
2022/03/01 10:48:57;;;;;;;;;;;;;;;5.18;36.34;101716.62;5556435;32;34312;-88
2022/03/01 10:52:05;;;;;;;;;;;;;;;5.07;34.36;101704.00;5554592;32;35415;-86
2022/03/01 10:55:24;;;;;;;;;;;;;;;5.16;36.05;101694.84;5554242;32;34149;-85
2022/03/01 10:58:27;;;;;;;;;;;;;;;5.03;33.21;101698.97;5557041;32;34886;-87
2022/03/01 11:01:30;;;;;;;;;;;;;;;5.00;34.00;101681.59;5543870;32;34371;-86
2022/03/01 11:04:34;;;;;;;;;;;;;;;5.08;35.22;101682.09;5553465;32;34146;-87
2022/03/01 11:07:37;;;;;;;;;;;;;;;5.26;35.55;101672.50;5555691;32;34712;-88
2022/03/01 11:10:41;;;;;;;;;;;;;;;5.39;35.03;101674.56;5557232;32;35807;-88
2022/03/01 11:13:44;;;;;;;;;;;;;;;5.32;34.14;101665.28;5559605;32;34483;-87
2022/03/01 11:17:24;;;;;;;;;;;;;;;5.30;35.22;101659.25;5559259;32;35084;-87
2022/03/01 11:20:30;;;;;;;;;;;;;;;5.30;33.38;101656.63;5459452;32;36661;-88
2022/03/01 11:23:33;;;;;;;;;;;;;;;5.32;34.27;101649.53;5458591;32;34984;-87
2022/03/01 11:26:37;;;;;;;;;;;;;;;5.45;34.38;101642.78;5459956;32;34718;-89
2022/03/01 11:29:41;;;;;;;;;;;;;;;5.44;34.22;101637.56;5448030;32;33738;-87
2022/03/01 11:32:45;;;;;;;;;;;;;;;5.61;34.00;101634.13;5459851;32;34777;-88
2022/03/01 11:35:53;;;;;;;;;;;;;;;5.42;35.03;101624.53;5457041;32;34622;-88
2022/03/01 11:39:26;;;;;;;;;;;;;;;5.51;33.23;101624.09;5456645;32;35212;-87
2022/03/01 11:42:33;;;;;;;;;;;;;;;5.59;32.07;101617.59;5451410;32;35013;-88
2022/03/01 11:45:36;;;;;;;;;;;;;;;5.61;31.60;101615.75;5459612;32;35757;-88
2022/03/01 11:48:44;;;;;;;;;;;;;;;5.82;31.29;101616.44;5460152;32;34415;-88
2022/03/01 11:51:49;;;;;;;;;;;;;;;5.76;30.85;101616.75;5460214;32;34153;-88
2022/03/01 11:54:53;;;;;;;;;;;;;;;5.59;31.87;101607.97;5529406;32;34378;-88
2022/03/01 11:57:56;;;;;;;;;;;;;;;5.60;31.05;101600.91;5555184;32;35352;-88
2022/03/01 12:01:05;;;;;;;;;;;;;;;5.80;33.51;101597.28;5555899;32;35355;-87
2022/03/01 12:04:11;;;;;;;;;;;;;;;5.78;32.76;101592.13;5555627;32;35390;-88
2022/03/01 12:07:21;;;;;;;;;;;;;;;5.85;32.36;101590.88;5555140;32;34885;-88
2022/03/01 12:10:26;;;;;;;;;;;;;;;5.94;30.67;101578.19;5558014;32;34338;-88
2022/03/01 12:13:33;;;;;;;;;;;;;;;6.14;29.98;101580.66;5556644;32;34608;-88
2022/03/01 12:16:36;;;;;;;;;;;;;;;6.14;31.09;101572.75;5557128;32;35631;-88
2022/03/01 12:19:40;;;;;;;;;;;;;;;6.14;30.77;101567.50;5555363;32;34468;-88
2022/03/01 12:22:58;;;;;;;;;;;;;;;6.30;29.43;101569.31;5557322;32;35790;-88
2022/03/01 12:26:03;;;;;;;;;;;;;;;6.41;30.12;101566.97;5556740;32;35243;-88
2022/03/01 12:29:08;;;;;;;;;;;;;;;6.52;29.39;101557.66;5553867;32;35064;-88
2022/03/01 12:32:12;;;;;;;;;;;;;;;6.50;30.00;101555.13;5542842;32;35253;-88
2022/03/01 12:35:15;;;;;;;;;;;;;;;6.63;29.01;101557.91;5537122;32;35191;-87
2022/03/01 12:38:18;;;;;;;;;;;;;;;6.53;30.10;101548.81;5536254;32;35569;-88
2022/03/01 12:41:26;;;;;;;;;;;;;;;6.41;29.25;101551.19;5536808;32;35437;-88
2022/03/01 12:44:30;;;;;;;;;;;;;;;6.62;28.64;101543.91;5537149;32;34863;-88
2022/03/01 12:47:33;;;;;;;;;;;;;;;6.73;28.69;101548.56;5535376;32;34586;-88
2022/03/01 12:50:42;;;;;;;;;;;;;;;6.53;31.12;101527.78;5537184;32;34236;-89
2022/03/01 12:54:09;;;;;;;;;;;;;;;6.78;29.50;101533.38;5534936;32;35705;-88
2022/03/01 12:57:13;;;;;;;;;;;;;;;6.82;28.38;101525.31;5536222;32;34257;-88
2022/03/01 13:00:16;;;;;;;;;;;;;;;6.74;27.98;101525.75;5539745;32;34146;-88
2022/03/01 13:03:29;;;;;;;;;;;;;;;6.63;27.27;101513.19;5542548;32;34313;-88
2022/03/01 13:06:31;;;;;;;;;;;;;;;6.73;28.25;101519.62;5535569;32;34422;-85
2022/03/01 13:09:35;;;;;;;;;;;;;;;6.94;30.58;101516.72;5537519;32;35221;-87
2022/03/01 13:12:51;;;;;;;;;;;;;;;6.94;27.48;101508.81;5541366;32;34677;-89
2022/03/01 13:16:00;;;;;;;;;;;;;;;7.05;26.77;101503.78;5555111;32;33830;-88
2022/03/01 13:19:05;;;;;;;;;;;;;;;7.01;27.16;101498.81;5555263;32;34763;-88
2022/03/01 13:22:08;;;;;;;;;;;;;;;7.04;26.26;101501.25;5556584;32;34658;-88
2022/03/01 13:25:11;;;;;;;;;;;;;;;6.84;26.48;101486.62;5554098;32;34791;-88
2022/03/01 13:28:14;;;;;;;;;;;;;;;6.88;27.23;101482.88;5555843;32;34568;-86
2022/03/01 13:31:27;;;;;;;;;;;;;;;7.04;26.43;101478.41;5557048;32;35083;-86
2022/03/01 13:34:34;;;;;;;;;;;;;;;6.89;28.80;101481.94;5554858;32;33579;-86
2022/03/01 13:37:40;;;;;;;;;;;;;;;6.98;26.44;101475.31;5551614;32;34376;-87
2022/03/01 13:40:43;;;;;;;;;;;;;;;6.93;25.16;101470.28;5556530;32;34535;-86
2022/03/01 13:43:46;;;;;;;;;;;;;;;6.99;26.38;101467.31;5555246;32;34817;-87
2022/03/01 13:47:03;;;;;;;;;;;;;;;7.11;25.86;101466.63;5556814;32;35083;-87
2022/03/01 13:50:11;;;;;;;;;;;;;;;7.13;26.39;101457.78;5554645;32;34312;-86
2022/03/01 13:53:15;;;;;;;;;;;;;;;7.03;26.16;101457.47;5556326;32;34596;-86
2022/03/01 13:56:25;;;;;;;;;;;;;;;6.97;26.60;101453.41;5555683;32;35490;-86
2022/03/01 13:59:30;;;;;;;;;;;;;;;7.00;27.72;101452.38;5557272;32;34785;-87
2022/03/01 14:02:33;;;;;;;;;;;;;;;6.79;25.47;101447.44;5557989;32;34636;-87
2022/03/01 14:05:39;;;;;;;;;;;;;;;6.87;25.40;101441.72;5558002;32;35130;-86
2022/03/01 14:08:44;;;;;;;;;;;;;;;7.02;25.72;101438.22;5560121;32;34703;-86
2022/03/01 14:11:53;;;;;;;;;;;;;;;7.11;25.18;101427.13;5540599;32;35516;-87
2022/03/01 14:14:56;;;;;;;;;;;;;;;6.87;25.02;101425.94;5538723;32;34756;-87
2022/03/01 14:17:59;;;;;;;;;;;;;;;6.88;25.50;101423.22;5538856;32;34618;-86
2022/03/01 14:21:02;;;;;;;;;;;;;;;6.87;24.99;101425.94;5535110;32;35146;-87
2022/03/01 14:24:07;;;;;;;;;;;;;;;6.91;24.98;101425.66;5534718;32;35018;-87
2022/03/01 14:27:09;;;;;;;;;;;;;;;6.84;24.01;101426.13;5535125;32;35022;-87
2022/03/01 14:30:12;;;;;;;;;;;;;;;6.84;25.09;101426.97;5539499;32;34724;-87
2022/03/01 14:33:15;;;;;;;;;;;;;;;6.78;23.15;101425.56;5536291;32;35498;-87
2022/03/01 14:36:18;;;;;;;;;;;;;;;6.76;24.45;101419.53;5536708;32;34605;-86
2022/03/01 14:39:21;;;;;;;;;;;;;;;6.82;23.89;101423.59;5541472;32;36369;-87
2022/03/01 14:42:24;;;;;;;;;;;;;;;6.72;23.53;101412.75;5543654;32;34973;-86
2022/03/01 14:45:29;;;;;;;;;;;;;;;6.64;23.86;101409.72;5538166;32;35087;-86
2022/03/01 14:48:35;;;;;;;;;;;;;;;6.78;23.45;101419.44;5545667;32;34869;-86
2022/03/01 14:51:37;;;;;;;;;;;;;;;6.71;24.61;101404.94;5555186;32;35443;-86
2022/03/01 14:54:41;;;;;;;;;;;;;;;6.60;25.41;101397.66;5552802;32;34147;-86
2022/03/01 14:57:44;;;;;;;;;;;;;;;6.57;25.31;101403.97;5543449;32;35441;-87
2022/03/01 15:00:51;;;;;;;;;;;;;;;6.54;24.52;101398.88;5552738;32;35041;-86
2022/03/01 15:03:53;;;;;;;;;;;;;;;6.67;24.38;101398.16;5554620;32;34785;-86
2022/03/01 15:06:57;;;;;;;;;;;;;;;6.56;24.31;101396.16;5554026;32;35465;-86
2022/03/01 15:09:59;;;;;;;;;;;;;;;6.69;23.26;101391.03;5553089;32;35414;-86
2022/03/01 15:13:09;;;;;;;;;;;;;;;6.54;24.30;101396.25;5552108;32;34740;-86
2022/03/01 15:16:11;;;;;;;;;;;;;;;6.42;24.33;101389.06;5554493;32;34748;-87
2022/03/01 15:19:17;;;;;;;;;;;;;;;6.40;24.49;101378.63;5559655;32;34375;-86
2022/03/01 15:22:23;;;;;;;;;;;;;;;6.33;25.02;101380.75;5557780;32;35197;-87
2022/03/01 15:25:25;;;;;;;;;;;;;;;6.15;25.08;101382.66;5546278;32;34718;-87
2022/03/01 15:28:33;;;;;;;;;;;;;;;6.10;24.69;101379.44;5542787;32;34117;-87
2022/03/01 15:31:35;;;;;;;;;;;;;;;6.13;24.08;101384.53;5544977;32;33195;-87
2022/03/01 15:34:41;;;;;;;;;;;;;;;6.11;24.37;101378.50;5548965;32;35285;-86
2022/03/01 15:37:44;;;;;;;;;;;;;;;6.02;25.48;101379.03;5561678;32;34686;-87
2022/03/01 15:40:47;;;;;;;;;;;;;;;6.02;24.96;101371.97;5562079;32;34704;-87
2022/03/01 15:43:51;;;;;;;;;;;;;;;6.13;24.04;101374.03;5559775;32;34749;-86
2022/03/01 15:46:56;;;;;;;;;;;;;;;5.98;24.33;101369.59;5547773;32;34304;-86
2022/03/01 15:49:59;;;;;;;;;;;;;;;5.97;24.71;101367.88;5542043;32;34669;-86
2022/03/01 15:53:02;;;;;;;;;;;;;;;6.00;24.52;101362.50;5545836;32;34944;-86
2022/03/01 15:56:05;;;;;;;;;;;;;;;5.90;24.72;101366.53;5564034;32;33959;-86